sensor_id;sensor_type;location;lat;lon;timestamp;temperature;humidity
9448;DHT22;4762;48.128;11.376;2023-02-19T00:01:57;10.20;85.20
9448;DHT22;4762;48.128;11.376;2023-02-19T00:04:02;10.20;85.20
9448;DHT22;4762;48.128;11.376;2023-02-19T00:06:04;10.20;85.70
9448;DHT22;4762;48.128;11.376;2023-02-19T00:08:06;10.20;86.00
9448;DHT22;4762;48.128;11.376;2023-02-19T00:10:08;10.20;85.90
9448;DHT22;4762;48.128;11.376;2023-02-19T00:12:10;10.20;85.80
9448;DHT22;4762;48.128;11.376;2023-02-19T00:14:15;10.20;85.60
9448;DHT22;4762;48.128;11.376;2023-02-19T00:16:18;10.20;85.10
9448;DHT22;4762;48.128;11.376;2023-02-19T00:18:19;10.20;85.10
9448;DHT22;4762;48.128;11.376;2023-02-19T00:20:21;10.20;85.10
9448;DHT22;4762;48.128;11.376;2023-02-19T00:22:23;10.20;85.40
9448;DHT22;4762;48.128;11.376;2023-02-19T00:24:26;10.20;85.60
9448;DHT22;4762;48.128;11.376;2023-02-19T00:26:28;10.20;85.50
9448;DHT22;4762;48.128;11.376;2023-02-19T00:28:30;10.20;84.90
9448;DHT22;4762;48.128;11.376;2023-02-19T00:30:32;10.20;85.10
9448;DHT22;4762;48.128;11.376;2023-02-19T00:32:35;10.20;85.30
9448;DHT22;4762;48.128;11.376;2023-02-19T00:34:37;10.20;85.50
9448;DHT22;4762;48.128;11.376;2023-02-19T00:36:39;10.20;85.20
9448;DHT22;4762;48.128;11.376;2023-02-19T00:38:42;10.20;85.20
9448;DHT22;4762;48.128;11.376;2023-02-19T00:40:44;10.20;85.00
9448;DHT22;4762;48.128;11.376;2023-02-19T00:42:46;10.20;85.40
9448;DHT22;4762;48.128;11.376;2023-02-19T00:44:48;10.20;85.50
9448;DHT22;4762;48.128;11.376;2023-02-19T00:46:50;10.20;85.60
9448;DHT22;4762;48.128;11.376;2023-02-19T00:48:53;10.20;85.30
9448;DHT22;4762;48.128;11.376;2023-02-19T00:50:55;10.20;85.50
9448;DHT22;4762;48.128;11.376;2023-02-19T00:52:57;10.20;85.80
9448;DHT22;4762;48.128;11.376;2023-02-19T00:55:00;10.20;86.20
9448;DHT22;4762;48.128;11.376;2023-02-19T00:57:02;10.20;86.20
9448;DHT22;4762;48.128;11.376;2023-02-19T00:59:04;10.10;86.30
9448;DHT22;4762;48.128;11.376;2023-02-19T01:01:06;10.20;85.90
9448;DHT22;4762;48.128;11.376;2023-02-19T01:03:09;10.20;86.10
9448;DHT22;4762;48.128;11.376;2023-02-19T01:05:11;10.20;87.50
9448;DHT22;4762;48.128;11.376;2023-02-19T01:07:13;10.20;86.70
9448;DHT22;4762;48.128;11.376;2023-02-19T01:09:15;10.10;87.30
9448;DHT22;4762;48.128;11.376;2023-02-19T01:11:18;10.10;87.30
9448;DHT22;4762;48.128;11.376;2023-02-19T01:13:20;10.10;86.80
9448;DHT22;4762;48.128;11.376;2023-02-19T01:15:22;10.10;86.30
9448;DHT22;4762;48.128;11.376;2023-02-19T01:17:24;10.10;86.50
9448;DHT22;4762;48.128;11.376;2023-02-19T01:19:27;10.10;86.50
9448;DHT22;4762;48.128;11.376;2023-02-19T01:21:29;10.10;86.60
9448;DHT22;4762;48.128;11.376;2023-02-19T01:23:31;10.10;86.60
9448;DHT22;4762;48.128;11.376;2023-02-19T01:25:33;10.10;86.50
9448;DHT22;4762;48.128;11.376;2023-02-19T01:27:36;10.10;86.60
9448;DHT22;4762;48.128;11.376;2023-02-19T01:29:38;10.10;86.60
9448;DHT22;4762;48.128;11.376;2023-02-19T01:31:40;10.10;86.90
9448;DHT22;4762;48.128;11.376;2023-02-19T01:33:45;10.10;87.00
9448;DHT22;4762;48.128;11.376;2023-02-19T01:38:12;10.00;89.80
9448;DHT22;4762;48.128;11.376;2023-02-19T01:40:15;9.90;90.20
9448;DHT22;4762;48.128;11.376;2023-02-19T01:42:17;9.90;90.50
9448;DHT22;4762;48.128;11.376;2023-02-19T01:46:51;9.90;89.50
9448;DHT22;4762;48.128;11.376;2023-02-19T01:48:54;9.90;89.80
9448;DHT22;4762;48.128;11.376;2023-02-19T01:51:02;9.90;89.50
9448;DHT22;4762;48.128;11.376;2023-02-19T01:53:01;9.90;89.60
9448;DHT22;4762;48.128;11.376;2023-02-19T01:55:04;9.90;89.40
9448;DHT22;4762;48.128;11.376;2023-02-19T01:57:07;9.90;88.90
9448;DHT22;4762;48.128;11.376;2023-02-19T01:59:09;9.90;89.00
9448;DHT22;4762;48.128;11.376;2023-02-19T02:01:11;10.00;89.40
9448;DHT22;4762;48.128;11.376;2023-02-19T02:03:13;9.90;90.30
9448;DHT22;4762;48.128;11.376;2023-02-19T02:05:36;9.80;91.40
9448;DHT22;4762;48.128;11.376;2023-02-19T02:07:47;9.70;91.60
9448;DHT22;4762;48.128;11.376;2023-02-19T02:09:54;9.70;91.70
9448;DHT22;4762;48.128;11.376;2023-02-19T02:12:02;9.70;91.70
9448;DHT22;4762;48.128;11.376;2023-02-19T02:14:05;9.70;91.40
9448;DHT22;4762;48.128;11.376;2023-02-19T02:18:24;9.50;93.90
9448;DHT22;4762;48.128;11.376;2023-02-19T02:20:35;9.30;95.80
9448;DHT22;4762;48.128;11.376;2023-02-19T02:22:43;9.30;96.50
9448;DHT22;4762;48.128;11.376;2023-02-19T02:31:52;9.00;98.40
9448;DHT22;4762;48.128;11.376;2023-02-19T02:33:58;9.00;99.00
9448;DHT22;4762;48.128;11.376;2023-02-19T02:36:02;8.90;99.20
9448;DHT22;4762;48.128;11.376;2023-02-19T02:38:04;8.90;99.60
9448;DHT22;4762;48.128;11.376;2023-02-19T02:40:05;8.90;99.90
9448;DHT22;4762;48.128;11.376;2023-02-19T02:42:07;8.80;99.90
9448;DHT22;4762;48.128;11.376;2023-02-19T02:44:32;8.80;99.90
9448;DHT22;4762;48.128;11.376;2023-02-19T02:48:47;8.60;99.90
9448;DHT22;4762;48.128;11.376;2023-02-19T02:51:09;8.50;99.90
9448;DHT22;4762;48.128;11.376;2023-02-19T02:53:13;8.40;99.90
9448;DHT22;4762;48.128;11.376;2023-02-19T02:55:18;8.40;99.90
9448;DHT22;4762;48.128;11.376;2023-02-19T02:57:20;8.40;99.90
9448;DHT22;4762;48.128;11.376;2023-02-19T02:59:24;8.40;99.90
9448;DHT22;4762;48.128;11.376;2023-02-19T03:01:31;8.30;99.90
9448;DHT22;4762;48.128;11.376;2023-02-19T03:03:38;8.20;99.90
9448;DHT22;4762;48.128;11.376;2023-02-19T03:05:40;8.30;99.90
9448;DHT22;4762;48.128;11.376;2023-02-19T03:07:56;8.20;99.90
9448;DHT22;4762;48.128;11.376;2023-02-19T03:09:57;8.20;99.90
9448;DHT22;4762;48.128;11.376;2023-02-19T03:11:59;8.20;99.90
9448;DHT22;4762;48.128;11.376;2023-02-19T03:14:24;8.00;99.90
9448;DHT22;4762;48.128;11.376;2023-02-19T03:16:30;7.90;99.90
9448;DHT22;4762;48.128;11.376;2023-02-19T03:18:37;7.80;99.90
9448;DHT22;4762;48.128;11.376;2023-02-19T03:20:47;7.80;99.90
9448;DHT22;4762;48.128;11.376;2023-02-19T03:22:48;7.80;99.90
9448;DHT22;4762;48.128;11.376;2023-02-19T03:24:52;7.80;99.90
9448;DHT22;4762;48.128;11.376;2023-02-19T03:26:59;7.80;99.90
9448;DHT22;4762;48.128;11.376;2023-02-19T03:29:01;7.80;99.90
9448;DHT22;4762;48.128;11.376;2023-02-19T03:31:10;7.80;99.90
9448;DHT22;4762;48.128;11.376;2023-02-19T03:33:13;7.70;99.90
9448;DHT22;4762;48.128;11.376;2023-02-19T03:35:17;7.70;99.90
9448;DHT22;4762;48.128;11.376;2023-02-19T03:37:20;7.60;99.90
9448;DHT22;4762;48.128;11.376;2023-02-19T03:39:21;7.50;99.90
9448;DHT22;4762;48.128;11.376;2023-02-19T03:41:28;7.40;99.90
9448;DHT22;4762;48.128;11.376;2023-02-19T03:43:37;7.40;99.90
9448;DHT22;4762;48.128;11.376;2023-02-19T03:45:52;7.40;99.90
9448;DHT22;4762;48.128;11.376;2023-02-19T03:47:56;7.40;99.90
9448;DHT22;4762;48.128;11.376;2023-02-19T03:50:16;7.40;99.90
9448;DHT22;4762;48.128;11.376;2023-02-19T03:52:29;7.30;99.90
9448;DHT22;4762;48.128;11.376;2023-02-19T03:54:42;7.30;99.90
9448;DHT22;4762;48.128;11.376;2023-02-19T03:56:43;7.30;99.90
9448;DHT22;4762;48.128;11.376;2023-02-19T03:58:50;7.30;99.90
9448;DHT22;4762;48.128;11.376;2023-02-19T04:00:54;7.30;99.90
9448;DHT22;4762;48.128;11.376;2023-02-19T04:02:59;7.30;99.90
9448;DHT22;4762;48.128;11.376;2023-02-19T04:05:07;7.30;99.90
9448;DHT22;4762;48.128;11.376;2023-02-19T04:07:08;7.20;99.90
9448;DHT22;4762;48.128;11.376;2023-02-19T04:09:11;7.20;99.90
9448;DHT22;4762;48.128;11.376;2023-02-19T04:11:13;7.30;99.90
9448;DHT22;4762;48.128;11.376;2023-02-19T04:13:22;7.30;99.90
9448;DHT22;4762;48.128;11.376;2023-02-19T04:15:23;7.30;99.90
9448;DHT22;4762;48.128;11.376;2023-02-19T04:17:27;7.30;99.90
9448;DHT22;4762;48.128;11.376;2023-02-19T04:19:28;7.20;99.90
9448;DHT22;4762;48.128;11.376;2023-02-19T04:21:31;7.30;99.90
9448;DHT22;4762;48.128;11.376;2023-02-19T04:23:34;7.30;99.90
9448;DHT22;4762;48.128;11.376;2023-02-19T04:25:36;7.30;99.90
9448;DHT22;4762;48.128;11.376;2023-02-19T04:27:38;7.30;99.90
9448;DHT22;4762;48.128;11.376;2023-02-19T04:29:40;7.30;99.90
9448;DHT22;4762;48.128;11.376;2023-02-19T04:31:42;7.20;99.90
9448;DHT22;4762;48.128;11.376;2023-02-19T04:33:44;7.20;99.90
9448;DHT22;4762;48.128;11.376;2023-02-19T04:35:46;7.20;99.90
9448;DHT22;4762;48.128;11.376;2023-02-19T04:37:49;7.30;99.90
9448;DHT22;4762;48.128;11.376;2023-02-19T04:39:51;7.30;99.90
9448;DHT22;4762;48.128;11.376;2023-02-19T04:41:53;7.30;99.90
9448;DHT22;4762;48.128;11.376;2023-02-19T04:43:55;7.30;99.90
9448;DHT22;4762;48.128;11.376;2023-02-19T04:45:59;7.30;99.90
9448;DHT22;4762;48.128;11.376;2023-02-19T04:48:01;7.40;99.90
9448;DHT22;4762;48.128;11.376;2023-02-19T04:50:03;7.40;99.90
9448;DHT22;4762;48.128;11.376;2023-02-19T04:52:06;7.40;99.90
9448;DHT22;4762;48.128;11.376;2023-02-19T04:54:08;7.40;99.90
9448;DHT22;4762;48.128;11.376;2023-02-19T04:56:11;7.40;99.90
9448;DHT22;4762;48.128;11.376;2023-02-19T04:58:12;7.40;99.90
9448;DHT22;4762;48.128;11.376;2023-02-19T05:00:14;7.40;99.90
9448;DHT22;4762;48.128;11.376;2023-02-19T05:02:17;7.50;99.90
9448;DHT22;4762;48.128;11.376;2023-02-19T05:04:19;7.50;99.90
9448;DHT22;4762;48.128;11.376;2023-02-19T05:06:21;7.50;99.90
9448;DHT22;4762;48.128;11.376;2023-02-19T05:08:23;7.50;99.90
9448;DHT22;4762;48.128;11.376;2023-02-19T05:10:26;7.50;99.90
9448;DHT22;4762;48.128;11.376;2023-02-19T05:12:28;7.50;99.90
9448;DHT22;4762;48.128;11.376;2023-02-19T05:14:30;7.50;99.90
9448;DHT22;4762;48.128;11.376;2023-02-19T05:16:33;7.50;99.90
9448;DHT22;4762;48.128;11.376;2023-02-19T05:20:37;7.60;99.90
9448;DHT22;4762;48.128;11.376;2023-02-19T05:24:54;7.60;99.90
9448;DHT22;4762;48.128;11.376;2023-02-19T05:26:57;7.60;99.90
9448;DHT22;4762;48.128;11.376;2023-02-19T05:28:59;7.60;99.90
9448;DHT22;4762;48.128;11.376;2023-02-19T05:31:03;7.70;99.90
9448;DHT22;4762;48.128;11.376;2023-02-19T05:33:04;7.60;99.90
9448;DHT22;4762;48.128;11.376;2023-02-19T05:35:07;7.60;99.90
9448;DHT22;4762;48.128;11.376;2023-02-19T05:37:09;7.60;99.90
9448;DHT22;4762;48.128;11.376;2023-02-19T05:39:11;7.60;99.90
9448;DHT22;4762;48.128;11.376;2023-02-19T05:41:14;7.60;99.90
9448;DHT22;4762;48.128;11.376;2023-02-19T05:43:16;7.60;99.90
9448;DHT22;4762;48.128;11.376;2023-02-19T05:45:18;7.70;99.90
9448;DHT22;4762;48.128;11.376;2023-02-19T05:47:20;7.70;99.90
9448;DHT22;4762;48.128;11.376;2023-02-19T05:49:23;7.70;99.90
9448;DHT22;4762;48.128;11.376;2023-02-19T05:51:25;7.70;99.90
9448;DHT22;4762;48.128;11.376;2023-02-19T05:53:27;7.80;99.90
9448;DHT22;4762;48.128;11.376;2023-02-19T05:55:33;7.70;99.90
9448;DHT22;4762;48.128;11.376;2023-02-19T05:57:32;7.70;99.90
9448;DHT22;4762;48.128;11.376;2023-02-19T05:59:34;7.70;99.90
9448;DHT22;4762;48.128;11.376;2023-02-19T06:01:36;7.80;99.90
9448;DHT22;4762;48.128;11.376;2023-02-19T06:03:39;7.80;99.90
9448;DHT22;4762;48.128;11.376;2023-02-19T06:05:41;7.80;99.90
9448;DHT22;4762;48.128;11.376;2023-02-19T06:07:43;7.80;99.90
9448;DHT22;4762;48.128;11.376;2023-02-19T06:09:48;7.70;99.90
9448;DHT22;4762;48.128;11.376;2023-02-19T06:11:48;7.80;99.90
9448;DHT22;4762;48.128;11.376;2023-02-19T06:13:50;7.80;99.90
9448;DHT22;4762;48.128;11.376;2023-02-19T06:15:52;7.80;99.90
9448;DHT22;4762;48.128;11.376;2023-02-19T06:17:54;7.80;99.90
9448;DHT22;4762;48.128;11.376;2023-02-19T06:19:57;7.80;99.90
9448;DHT22;4762;48.128;11.376;2023-02-19T06:21:59;7.80;99.90
9448;DHT22;4762;48.128;11.376;2023-02-19T06:24:05;7.80;99.90
9448;DHT22;4762;48.128;11.376;2023-02-19T06:26:09;7.80;99.90
9448;DHT22;4762;48.128;11.376;2023-02-19T06:28:10;7.90;99.90
9448;DHT22;4762;48.128;11.376;2023-02-19T06:30:12;7.90;99.90
9448;DHT22;4762;48.128;11.376;2023-02-19T06:32:15;7.90;99.90
9448;DHT22;4762;48.128;11.376;2023-02-19T06:34:17;7.90;99.90
9448;DHT22;4762;48.128;11.376;2023-02-19T06:36:20;7.90;99.90
9448;DHT22;4762;48.128;11.376;2023-02-19T06:38:21;7.90;99.90
9448;DHT22;4762;48.128;11.376;2023-02-19T06:40:24;7.90;99.90
9448;DHT22;4762;48.128;11.376;2023-02-19T06:42:26;7.90;99.90
9448;DHT22;4762;48.128;11.376;2023-02-19T06:44:28;8.00;99.90
9448;DHT22;4762;48.128;11.376;2023-02-19T06:46:30;8.00;99.90
9448;DHT22;4762;48.128;11.376;2023-02-19T06:48:33;8.00;99.90
9448;DHT22;4762;48.128;11.376;2023-02-19T06:50:35;8.00;99.90
9448;DHT22;4762;48.128;11.376;2023-02-19T06:52:37;8.00;99.90
9448;DHT22;4762;48.128;11.376;2023-02-19T06:54:39;8.00;99.90
9448;DHT22;4762;48.128;11.376;2023-02-19T06:56:41;8.00;99.90
9448;DHT22;4762;48.128;11.376;2023-02-19T06:58:44;8.00;99.90
9448;DHT22;4762;48.128;11.376;2023-02-19T07:00:46;8.10;99.90
9448;DHT22;4762;48.128;11.376;2023-02-19T07:02:48;8.20;99.90
9448;DHT22;4762;48.128;11.376;2023-02-19T07:04:50;8.20;99.90
9448;DHT22;4762;48.128;11.376;2023-02-19T07:06:53;8.20;99.90
9448;DHT22;4762;48.128;11.376;2023-02-19T07:08:55;8.20;99.90
9448;DHT22;4762;48.128;11.376;2023-02-19T07:10:57;8.20;99.90
9448;DHT22;4762;48.128;11.376;2023-02-19T07:12:59;8.20;99.90
9448;DHT22;4762;48.128;11.376;2023-02-19T07:15:02;8.20;99.90
9448;DHT22;4762;48.128;11.376;2023-02-19T07:17:04;8.10;99.90
9448;DHT22;4762;48.128;11.376;2023-02-19T07:19:06;8.10;99.90
9448;DHT22;4762;48.128;11.376;2023-02-19T07:21:10;8.00;99.90
9448;DHT22;4762;48.128;11.376;2023-02-19T07:23:11;8.00;99.90
9448;DHT22;4762;48.128;11.376;2023-02-19T07:25:13;8.10;99.90
9448;DHT22;4762;48.128;11.376;2023-02-19T07:27:15;8.10;99.90
9448;DHT22;4762;48.128;11.376;2023-02-19T07:29:17;8.10;99.90
9448;DHT22;4762;48.128;11.376;2023-02-19T07:31:20;8.10;99.90
9448;DHT22;4762;48.128;11.376;2023-02-19T07:33:22;8.10;99.90
9448;DHT22;4762;48.128;11.376;2023-02-19T07:35:24;8.10;99.90
9448;DHT22;4762;48.128;11.376;2023-02-19T07:37:26;8.10;99.90
9448;DHT22;4762;48.128;11.376;2023-02-19T07:39:29;8.20;99.90
9448;DHT22;4762;48.128;11.376;2023-02-19T07:41:31;8.10;99.90
9448;DHT22;4762;48.128;11.376;2023-02-19T07:43:34;8.20;99.90
9448;DHT22;4762;48.128;11.376;2023-02-19T07:45:35;8.10;99.90
9448;DHT22;4762;48.128;11.376;2023-02-19T07:47:38;8.10;99.90
9448;DHT22;4762;48.128;11.376;2023-02-19T07:49:40;8.10;99.90
9448;DHT22;4762;48.128;11.376;2023-02-19T07:51:42;8.10;99.90
9448;DHT22;4762;48.128;11.376;2023-02-19T07:53:45;8.10;99.90
9448;DHT22;4762;48.128;11.376;2023-02-19T07:55:47;8.10;99.90
9448;DHT22;4762;48.128;11.376;2023-02-19T07:57:49;8.10;99.90
9448;DHT22;4762;48.128;11.376;2023-02-19T07:59:51;8.10;99.90
9448;DHT22;4762;48.128;11.376;2023-02-19T08:01:53;8.10;99.90
9448;DHT22;4762;48.128;11.376;2023-02-19T08:04:01;8.10;99.90
9448;DHT22;4762;48.128;11.376;2023-02-19T08:06:04;8.10;99.90
9448;DHT22;4762;48.128;11.376;2023-02-19T08:08:08;8.10;99.90
9448;DHT22;4762;48.128;11.376;2023-02-19T08:10:09;8.10;99.90
9448;DHT22;4762;48.128;11.376;2023-02-19T08:12:17;8.10;99.90
9448;DHT22;4762;48.128;11.376;2023-02-19T08:14:26;8.10;99.90
9448;DHT22;4762;48.128;11.376;2023-02-19T08:16:27;8.10;99.90
9448;DHT22;4762;48.128;11.376;2023-02-19T08:18:30;8.10;99.90
9448;DHT22;4762;48.128;11.376;2023-02-19T08:20:32;8.10;99.90
9448;DHT22;4762;48.128;11.376;2023-02-19T08:22:34;8.10;99.90
9448;DHT22;4762;48.128;11.376;2023-02-19T08:24:36;8.10;99.90
9448;DHT22;4762;48.128;11.376;2023-02-19T08:26:39;8.20;99.90
9448;DHT22;4762;48.128;11.376;2023-02-19T08:28:41;8.20;99.90
9448;DHT22;4762;48.128;11.376;2023-02-19T08:30:44;8.20;99.90
9448;DHT22;4762;48.128;11.376;2023-02-19T08:32:45;8.20;99.90
9448;DHT22;4762;48.128;11.376;2023-02-19T08:34:48;8.20;99.90
9448;DHT22;4762;48.128;11.376;2023-02-19T08:36:50;8.20;99.90
9448;DHT22;4762;48.128;11.376;2023-02-19T08:38:52;8.20;99.90
9448;DHT22;4762;48.128;11.376;2023-02-19T08:40:54;8.30;99.90
9448;DHT22;4762;48.128;11.376;2023-02-19T08:43:06;8.30;99.90
9448;DHT22;4762;48.128;11.376;2023-02-19T08:45:07;8.20;99.90
9448;DHT22;4762;48.128;11.376;2023-02-19T08:47:10;8.20;99.90
9448;DHT22;4762;48.128;11.376;2023-02-19T08:49:12;8.30;99.90
9448;DHT22;4762;48.128;11.376;2023-02-19T08:51:14;8.40;99.90
9448;DHT22;4762;48.128;11.376;2023-02-19T08:53:16;8.40;99.90
9448;DHT22;4762;48.128;11.376;2023-02-19T08:55:19;8.40;99.90
9448;DHT22;4762;48.128;11.376;2023-02-19T08:57:21;8.40;99.90
9448;DHT22;4762;48.128;11.376;2023-02-19T08:59:23;8.40;99.90
9448;DHT22;4762;48.128;11.376;2023-02-19T09:01:25;8.40;99.90
9448;DHT22;4762;48.128;11.376;2023-02-19T09:03:28;8.40;99.90
9448;DHT22;4762;48.128;11.376;2023-02-19T09:05:30;8.40;99.90
9448;DHT22;4762;48.128;11.376;2023-02-19T09:07:33;8.40;99.90
9448;DHT22;4762;48.128;11.376;2023-02-19T09:09:36;8.50;99.90
9448;DHT22;4762;48.128;11.376;2023-02-19T09:11:38;8.40;99.90
9448;DHT22;4762;48.128;11.376;2023-02-19T09:13:41;8.50;99.90
9448;DHT22;4762;48.128;11.376;2023-02-19T09:15:43;8.60;99.90
9448;DHT22;4762;48.128;11.376;2023-02-19T09:17:49;8.60;99.90
9448;DHT22;4762;48.128;11.376;2023-02-19T09:19:47;8.60;99.90
9448;DHT22;4762;48.128;11.376;2023-02-19T09:21:50;8.50;99.90
9448;DHT22;4762;48.128;11.376;2023-02-19T09:23:52;8.60;99.90
9448;DHT22;4762;48.128;11.376;2023-02-19T09:25:57;8.80;99.90
9448;DHT22;4762;48.128;11.376;2023-02-19T09:27:58;8.90;99.90
9448;DHT22;4762;48.128;11.376;2023-02-19T09:30:01;9.00;99.90
9448;DHT22;4762;48.128;11.376;2023-02-19T09:32:03;9.50;99.90
9448;DHT22;4762;48.128;11.376;2023-02-19T09:34:05;9.70;99.90
9448;DHT22;4762;48.128;11.376;2023-02-19T09:36:08;9.70;99.90
9448;DHT22;4762;48.128;11.376;2023-02-19T09:38:10;9.40;99.90
9448;DHT22;4762;48.128;11.376;2023-02-19T09:40:12;9.20;99.90
9448;DHT22;4762;48.128;11.376;2023-02-19T09:42:16;9.20;99.90
9448;DHT22;4762;48.128;11.376;2023-02-19T09:44:20;9.10;99.90
9448;DHT22;4762;48.128;11.376;2023-02-19T09:46:23;9.20;99.90
9448;DHT22;4762;48.128;11.376;2023-02-19T09:48:23;9.20;99.90
9448;DHT22;4762;48.128;11.376;2023-02-19T09:50:31;9.40;99.90
9448;DHT22;4762;48.128;11.376;2023-02-19T09:52:34;9.10;99.90
9448;DHT22;4762;48.128;11.376;2023-02-19T09:54:34;8.70;99.90
9448;DHT22;4762;48.128;11.376;2023-02-19T09:56:36;8.60;99.90
9448;DHT22;4762;48.128;11.376;2023-02-19T09:58:42;8.80;99.90
9448;DHT22;4762;48.128;11.376;2023-02-19T10:00:42;8.80;99.90
9448;DHT22;4762;48.128;11.376;2023-02-19T10:02:44;8.80;99.90
9448;DHT22;4762;48.128;11.376;2023-02-19T10:04:47;8.70;99.90
9448;DHT22;4762;48.128;11.376;2023-02-19T10:06:49;8.70;99.90
9448;DHT22;4762;48.128;11.376;2023-02-19T10:08:54;8.80;99.90
9448;DHT22;4762;48.128;11.376;2023-02-19T10:10:54;9.30;99.90
9448;DHT22;4762;48.128;11.376;2023-02-19T10:13:09;9.40;99.90
9448;DHT22;4762;48.128;11.376;2023-02-19T10:15:08;9.20;99.90
9448;DHT22;4762;48.128;11.376;2023-02-19T10:17:07;9.10;99.90
9448;DHT22;4762;48.128;11.376;2023-02-19T10:19:10;9.10;99.90
9448;DHT22;4762;48.128;11.376;2023-02-19T10:21:15;9.30;99.90
9448;DHT22;4762;48.128;11.376;2023-02-19T10:23:16;9.30;99.90
9448;DHT22;4762;48.128;11.376;2023-02-19T10:25:18;9.50;99.90
9448;DHT22;4762;48.128;11.376;2023-02-19T10:27:20;10.00;99.90
9448;DHT22;4762;48.128;11.376;2023-02-19T10:29:22;10.40;99.90
9448;DHT22;4762;48.128;11.376;2023-02-19T10:31:25;10.70;99.90
9448;DHT22;4762;48.128;11.376;2023-02-19T10:33:27;10.90;92.30
9448;DHT22;4762;48.128;11.376;2023-02-19T10:35:29;10.90;90.50
9448;DHT22;4762;48.128;11.376;2023-02-19T10:37:31;10.90;91.10
9448;DHT22;4762;48.128;11.376;2023-02-19T10:39:37;10.90;91.80
9448;DHT22;4762;48.128;11.376;2023-02-19T10:41:36;11.30;88.50
9448;DHT22;4762;48.128;11.376;2023-02-19T10:43:39;11.50;87.00
9448;DHT22;4762;48.128;11.376;2023-02-19T10:45:44;11.10;85.40
9448;DHT22;4762;48.128;11.376;2023-02-19T10:47:45;11.20;87.20
9448;DHT22;4762;48.128;11.376;2023-02-19T10:49:45;11.40;82.70
9448;DHT22;4762;48.128;11.376;2023-02-19T10:51:47;11.80;82.00
9448;DHT22;4762;48.128;11.376;2023-02-19T10:53:50;11.80;81.50
9448;DHT22;4762;48.128;11.376;2023-02-19T10:58:19;11.50;81.60
9448;DHT22;4762;48.128;11.376;2023-02-19T11:00:22;11.20;81.20
9448;DHT22;4762;48.128;11.376;2023-02-19T11:02:23;10.90;81.90
9448;DHT22;4762;48.128;11.376;2023-02-19T11:04:26;10.80;81.70
9448;DHT22;4762;48.128;11.376;2023-02-19T11:06:28;10.60;82.90
9448;DHT22;4762;48.128;11.376;2023-02-19T11:08:32;10.40;82.50
9448;DHT22;4762;48.128;11.376;2023-02-19T11:10:40;10.50;86.20
9448;DHT22;4762;48.128;11.376;2023-02-19T11:12:42;10.60;81.70
9448;DHT22;4762;48.128;11.376;2023-02-19T11:14:45;10.60;80.00
9448;DHT22;4762;48.128;11.376;2023-02-19T11:16:48;10.60;81.50
9448;DHT22;4762;48.128;11.376;2023-02-19T11:18:53;10.80;81.30
9448;DHT22;4762;48.128;11.376;2023-02-19T11:20:57;10.70;83.90
9448;DHT22;4762;48.128;11.376;2023-02-19T11:22:59;10.80;82.00
9448;DHT22;4762;48.128;11.376;2023-02-19T11:25:20;10.90;83.20
9448;DHT22;4762;48.128;11.376;2023-02-19T11:27:14;11.70;80.10
9448;DHT22;4762;48.128;11.376;2023-02-19T11:29:15;11.50;78.10
9448;DHT22;4762;48.128;11.376;2023-02-19T11:31:16;11.50;81.70
9448;DHT22;4762;48.128;11.376;2023-02-19T11:33:30;12.00;79.20
9448;DHT22;4762;48.128;11.376;2023-02-19T11:35:32;12.40;77.30
9448;DHT22;4762;48.128;11.376;2023-02-19T11:37:34;12.00;78.60
9448;DHT22;4762;48.128;11.376;2023-02-19T11:39:38;11.80;80.20
9448;DHT22;4762;48.128;11.376;2023-02-19T11:41:52;11.50;80.10
9448;DHT22;4762;48.128;11.376;2023-02-19T11:44:13;11.10;82.00
9448;DHT22;4762;48.128;11.376;2023-02-19T11:46:27;10.90;84.40
9448;DHT22;4762;48.128;11.376;2023-02-19T11:48:41;10.70;84.80
9448;DHT22;4762;48.128;11.376;2023-02-19T11:50:56;10.60;84.40
9448;DHT22;4762;48.128;11.376;2023-02-19T11:53:02;10.50;83.20
9448;DHT22;4762;48.128;11.376;2023-02-19T11:55:11;10.40;82.20
9448;DHT22;4762;48.128;11.376;2023-02-19T11:57:19;10.20;80.30
9448;DHT22;4762;48.128;11.376;2023-02-19T11:59:27;10.20;80.90
9448;DHT22;4762;48.128;11.376;2023-02-19T12:06:22;10.40;81.60
9448;DHT22;4762;48.128;11.376;2023-02-19T12:08:35;10.50;79.50
9448;DHT22;4762;48.128;11.376;2023-02-19T12:10:43;10.60;79.10
9448;DHT22;4762;48.128;11.376;2023-02-19T12:13:06;10.70;78.40
9448;DHT22;4762;48.128;11.376;2023-02-19T12:15:23;10.80;77.90
9448;DHT22;4762;48.128;11.376;2023-02-19T12:20:16;11.00;77.60
9448;DHT22;4762;48.128;11.376;2023-02-19T12:22:28;10.90;77.60
9448;DHT22;4762;48.128;11.376;2023-02-19T12:29:21;10.80;77.90
9448;DHT22;4762;48.128;11.376;2023-02-19T12:33:48;11.00;77.20
9448;DHT22;4762;48.128;11.376;2023-02-19T12:35:56;11.20;77.50
9448;DHT22;4762;48.128;11.376;2023-02-19T12:40:34;11.10;76.60
9448;DHT22;4762;48.128;11.376;2023-02-19T12:42:56;10.30;81.40
9448;DHT22;4762;48.128;11.376;2023-02-19T12:44:56;9.90;84.90
9448;DHT22;4762;48.128;11.376;2023-02-19T12:46:58;9.60;86.40
9448;DHT22;4762;48.128;11.376;2023-02-19T12:49:18;9.50;87.60
9448;DHT22;4762;48.128;11.376;2023-02-19T12:51:22;9.50;89.20
9448;DHT22;4762;48.128;11.376;2023-02-19T12:53:31;9.50;86.40
9448;DHT22;4762;48.128;11.376;2023-02-19T12:55:35;9.60;86.10
9448;DHT22;4762;48.128;11.376;2023-02-19T12:57:35;9.80;84.40
9448;DHT22;4762;48.128;11.376;2023-02-19T12:59:47;10.00;82.90
9448;DHT22;4762;48.128;11.376;2023-02-19T13:01:53;9.80;79.80
9448;DHT22;4762;48.128;11.376;2023-02-19T13:04:05;9.70;79.50
9448;DHT22;4762;48.128;11.376;2023-02-19T13:06:05;9.70;78.80
9448;DHT22;4762;48.128;11.376;2023-02-19T13:08:10;9.70;78.20
9448;DHT22;4762;48.128;11.376;2023-02-19T13:10:26;9.90;82.90
9448;DHT22;4762;48.128;11.376;2023-02-19T13:12:28;9.90;86.00
9448;DHT22;4762;48.128;11.376;2023-02-19T13:14:33;10.00;82.90
9448;DHT22;4762;48.128;11.376;2023-02-19T13:16:36;10.30;82.80
9448;DHT22;4762;48.128;11.376;2023-02-19T13:18:40;10.20;79.20
9448;DHT22;4762;48.128;11.376;2023-02-19T13:20:41;10.30;81.20
9448;DHT22;4762;48.128;11.376;2023-02-19T13:22:47;10.00;79.10
9448;DHT22;4762;48.128;11.376;2023-02-19T13:24:53;9.40;85.30
9448;DHT22;4762;48.128;11.376;2023-02-19T13:27:22;9.00;89.10
9448;DHT22;4762;48.128;11.376;2023-02-19T13:29:27;8.90;90.40
9448;DHT22;4762;48.128;11.376;2023-02-19T13:31:49;9.10;90.70
9448;DHT22;4762;48.128;11.376;2023-02-19T13:33:55;9.30;88.90
9448;DHT22;4762;48.128;11.376;2023-02-19T13:36:02;9.40;87.70
9448;DHT22;4762;48.128;11.376;2023-02-19T13:38:03;9.40;87.80
9448;DHT22;4762;48.128;11.376;2023-02-19T13:40:18;9.70;88.30
9448;DHT22;4762;48.128;11.376;2023-02-19T13:42:11;9.70;87.20
9448;DHT22;4762;48.128;11.376;2023-02-19T13:44:22;9.80;85.40
9448;DHT22;4762;48.128;11.376;2023-02-19T13:46:22;8.90;90.50
9448;DHT22;4762;48.128;11.376;2023-02-19T13:48:28;8.50;93.30
9448;DHT22;4762;48.128;11.376;2023-02-19T13:50:30;8.40;95.30
9448;DHT22;4762;48.128;11.376;2023-02-19T13:52:33;8.30;94.00
9448;DHT22;4762;48.128;11.376;2023-02-19T13:54:34;8.30;93.40
9448;DHT22;4762;48.128;11.376;2023-02-19T13:56:37;8.30;93.60
9448;DHT22;4762;48.128;11.376;2023-02-19T14:00:56;8.40;92.80
9448;DHT22;4762;48.128;11.376;2023-02-19T14:05:12;8.60;91.70
9448;DHT22;4762;48.128;11.376;2023-02-19T14:07:34;8.60;91.50
9448;DHT22;4762;48.128;11.376;2023-02-19T14:09:50;8.60;91.50
9448;DHT22;4762;48.128;11.376;2023-02-19T14:12:20;8.70;91.10